Time;durP1;ratioP1;P1;durP2;ratioP2;P2;SDS_P1;SDS_P2;PMS_P1;PMS_P2;Temp;Humidity;BMP_temperature;BMP_pressure;BME280_temperature;BME280_humidity;BME280_pressure;Samples;Min_cycle;Max_cycle;Signal;HPM_P1;HPM_P2
2023/08/19 00:01:07;;;;;;;9.10;8.40;;;25.40;91.50;;;27.97;58.67;101395.13;5033454;28;20218;-59
2023/08/19 00:03:35;;;;;;;9.27;8.37;;;25.40;91.40;;;27.96;58.55;101393.47;5031761;28;20194;-55
2023/08/19 00:06:08;;;;;;;9.40;8.50;;;25.30;91.40;;;27.94;58.65;101401.06;5013857;28;20226;-58
2023/08/19 00:08:37;;;;;;;9.87;9.03;;;25.30;91.40;;;27.93;58.22;101394.03;5014120;28;20328;-53
2023/08/19 00:11:04;;;;;;;8.80;8.10;;;25.30;91.40;;;27.91;58.40;101393.47;5013836;28;20221;-59
2023/08/19 00:13:31;;;;;;;10.10;9.20;;;25.30;91.40;;;27.89;58.58;101382.13;5013684;28;20538;-58
2023/08/19 00:15:59;;;;;;;9.70;8.73;;;25.30;91.40;;;27.86;58.63;101390.78;5026021;28;20647;-58
2023/08/19 00:18:27;;;;;;;10.10;9.13;;;25.30;91.40;;;27.83;58.82;101383.22;5032675;28;20273;-60
2023/08/19 00:20:55;;;;;;;10.10;9.30;;;25.30;91.40;;;27.80;58.70;101381.06;5032866;28;20214;-58
2023/08/19 00:23:25;;;;;;;10.67;9.77;;;25.20;91.40;;;27.79;58.60;101376.72;5033464;28;20194;-56
2023/08/19 00:25:52;;;;;;;9.47;8.60;;;25.20;91.40;;;27.78;58.62;101377.00;5033128;28;20688;-58
2023/08/19 00:28:19;;;;;;;8.83;8.13;;;25.20;91.30;;;27.78;58.46;101374.28;5034909;28;20186;-57
2023/08/19 00:30:46;;;;;;;11.17;10.13;;;25.20;91.30;;;27.76;58.65;101371.88;5036587;28;20229;-56
2023/08/19 00:33:14;;;;;;;10.17;8.93;;;25.20;91.30;;;27.76;58.24;101365.66;5032700;28;20241;-56
2023/08/19 00:35:42;;;;;;;9.57;8.63;;;25.20;91.20;;;27.78;58.18;101369.69;5036991;28;20221;-55
2023/08/19 00:38:09;;;;;;;8.67;7.97;;;25.10;91.20;;;27.79;58.13;101374.00;5037445;28;20208;-58
2023/08/19 00:40:37;;;;;;;11.03;10.07;;;25.20;91.20;;;27.79;57.99;101370.53;5036963;28;20207;-58
2023/08/19 00:43:05;;;;;;;10.40;9.30;;;25.20;91.20;;;27.78;57.95;101367.00;5037526;28;20202;-55
2023/08/19 00:45:32;;;;;;;10.13;9.27;;;25.10;91.10;;;27.78;57.87;101369.69;5036822;28;20194;-56
2023/08/19 00:47:59;;;;;;;10.70;9.90;;;25.10;91.00;;;27.77;58.29;101367.25;5036912;28;20209;-58
2023/08/19 00:50:27;;;;;;;11.57;10.67;;;25.10;91.00;;;27.76;57.79;101369.16;5036764;28;20293;-56
2023/08/19 00:52:54;;;;;;;10.33;9.37;;;25.20;91.00;;;27.75;57.72;101367.53;5037314;28;20198;-57
2023/08/19 00:55:21;;;;;;;12.37;11.23;;;25.10;91.00;;;27.73;57.91;101361.59;5037187;28;20201;-58
2023/08/19 00:57:50;;;;;;;11.07;9.97;;;25.10;90.90;;;27.73;57.83;101366.19;5037154;28;20187;-54
2023/08/19 01:00:17;;;;;;;10.90;9.90;;;25.10;90.90;;;27.72;57.76;101362.66;5036576;28;20218;-56
2023/08/19 01:02:44;;;;;;;11.73;10.60;;;25.10;90.90;;;27.73;57.58;101361.59;5036746;28;20190;-57
2023/08/19 01:05:12;;;;;;;11.67;10.67;;;25.10;90.80;;;27.75;57.42;101359.41;5036512;28;20195;-57
2023/08/19 01:07:49;;;;;;;11.97;11.07;;;25.10;90.70;;;27.75;57.25;101359.41;5037099;28;20299;-54
2023/08/19 01:10:28;;;;;;;13.07;12.00;;;25.10;90.60;;;27.77;56.94;101362.66;5036180;28;20206;-55
2023/08/19 01:13:11;;;;;;;12.50;11.50;;;25.20;90.60;;;27.78;57.04;101352.66;5036629;28;20194;-58
2023/08/19 01:15:50;;;;;;;13.30;12.10;;;25.10;90.50;;;27.79;57.05;101356.97;5036588;28;20198;-55
2023/08/19 01:18:18;;;;;;;12.63;11.53;;;25.20;90.50;;;27.80;56.50;101345.88;5037359;28;20191;-58
2023/08/19 01:20:47;;;;;;;12.90;11.90;;;25.20;90.40;;;27.83;56.74;101350.75;5035740;28;20256;-57
2023/08/19 01:23:18;;;;;;;11.93;10.87;;;25.20;90.30;;;27.82;56.68;101349.13;5036947;28;20194;-58
2023/08/19 01:25:47;;;;;;;12.37;11.37;;;25.20;90.30;;;27.83;56.82;101345.34;5036947;28;20183;-58
2023/08/19 01:28:14;;;;;;;13.37;12.20;;;25.20;90.30;;;27.81;56.86;101342.09;5036498;28;20202;-58
2023/08/19 01:30:42;;;;;;;13.27;12.13;;;25.20;90.30;;;27.81;56.86;101342.09;5036093;28;20225;-57
2023/08/19 01:33:09;;;;;;;13.50;12.20;;;25.20;90.30;;;27.82;56.94;101343.69;5036187;28;20190;-59
2023/08/19 01:35:43;;;;;;;13.03;11.93;;;25.20;90.30;;;27.81;57.02;101342.09;5036005;28;20678;-58
2023/08/19 01:38:20;;;;;;;13.73;12.63;;;25.20;90.30;;;27.80;56.86;101342.34;5035289;28;20270;-58
2023/08/19 01:40:50;;;;;;;14.43;13.23;;;25.20;90.30;;;27.81;56.84;101342.09;5035884;28;20210;-59
2023/08/19 01:43:18;;;;;;;13.67;12.53;;;25.20;90.20;;;27.81;56.91;101342.09;5036453;28;20202;-58
2023/08/19 01:45:45;;;;;;;13.13;11.93;;;25.30;90.20;;;27.83;56.82;101342.63;5035985;28;20190;-54
2023/08/19 01:48:13;;;;;;;12.37;11.27;;;25.20;90.20;;;27.84;56.81;101338.81;5036382;28;20206;-57
2023/08/19 01:50:40;;;;;;;12.33;11.23;;;25.30;90.20;;;27.85;56.62;101335.03;5035915;28;20210;-56
2023/08/19 01:53:07;;;;;;;13.43;12.10;;;25.20;90.20;;;27.84;56.59;101338.81;5035336;28;20205;-59
2023/08/19 01:55:34;;;;;;;13.13;12.03;;;25.20;90.20;;;27.85;56.55;101343.16;5036156;28;20191;-60
2023/08/19 01:58:03;;;;;;;12.30;11.30;;;25.20;90.20;;;27.84;56.62;101341.53;5017691;28;20195;-56
2023/08/19 02:00:30;;;;;;;12.27;11.17;;;25.20;90.20;;;27.86;56.58;101346.69;5016339;28;20229;-57
2023/08/19 02:02:57;;;;;;;13.10;11.77;;;25.20;90.20;;;27.86;56.45;101336.66;5016298;28;20199;-54
2023/08/19 02:05:25;;;;;;;13.67;12.47;;;25.20;90.20;;;27.84;56.58;101344.22;5027968;28;20218;-54
2023/08/19 02:07:53;;;;;;;13.83;12.73;;;25.20;90.30;;;27.84;56.57;101346.94;5035946;28;20281;-58
2023/08/19 02:10:20;;;;;;;11.80;10.80;;;25.20;90.30;;;27.84;56.66;101346.94;5035263;28;20218;-56
2023/08/19 02:12:47;;;;;;;14.37;12.90;;;25.20;90.30;;;27.84;56.42;101335.28;5035846;28;20217;-56
2023/08/19 02:15:15;;;;;;;14.00;12.80;;;25.20;90.30;;;27.82;56.45;101341.00;5035584;28;20294;-58
2023/08/19 02:17:42;;;;;;;13.10;12.07;;;25.20;90.30;;;27.79;56.47;101336.13;5035568;28;20289;-57
2023/08/19 02:20:11;;;;;;;14.60;13.30;;;25.20;90.30;;;27.78;56.75;101337.22;5034660;28;20238;-59
2023/08/19 02:22:40;;;;;;;13.87;12.77;;;25.20;90.40;;;27.75;56.95;101335.06;5035516;28;20648;-58
2023/08/19 02:25:08;;;;;;;15.50;14.20;;;25.10;90.30;;;27.72;56.90;101332.88;5035612;28;20248;-60
2023/08/19 02:27:37;;;;;;;15.13;13.93;;;25.10;90.40;;;27.69;57.46;101333.47;5035224;28;20205;-58
2023/08/19 02:30:05;;;;;;;15.40;14.10;;;25.10;90.80;;;27.68;57.01;101333.72;5035272;28;20207;-57
2023/08/19 02:32:34;;;;;;;15.57;14.27;;;25.10;90.60;;;27.67;56.97;101330.19;5035618;28;20309;-57
2023/08/19 02:35:01;;;;;;;15.90;14.50;;;25.10;90.60;;;27.65;57.45;101329.66;5035253;28;20229;-57
2023/08/19 02:37:28;;;;;;;16.37;14.77;;;25.10;90.70;;;27.64;57.51;101332.66;5035488;28;20686;-58
2023/08/19 02:39:55;;;;;;;17.23;15.53;;;25.00;90.70;;;27.61;57.43;101331.28;5035121;28;20211;-56
2023/08/19 02:42:22;;;;;;;17.60;16.10;;;25.00;90.80;;;27.59;57.66;101330.75;5035675;28;20247;-56
2023/08/19 02:44:50;;;;;;;15.33;14.03;;;25.00;90.80;;;27.59;57.73;101332.66;5035727;28;20666;-58
2023/08/19 02:47:17;;;;;;;16.37;14.80;;;25.00;90.80;;;27.57;57.78;101330.22;5035544;28;20214;-57
2023/08/19 02:49:46;;;;;;;17.53;15.93;;;25.00;90.80;;;27.57;57.55;101341.03;5035731;28;20241;-55
2023/08/19 02:52:13;;;;;;;18.13;16.47;;;25.00;90.90;;;27.56;57.72;101331.28;5034735;28;20659;-57
2023/08/19 02:54:40;;;;;;;18.20;16.53;;;25.00;90.90;;;27.53;57.87;101335.34;5035371;28;20268;-58
2023/08/19 02:57:07;;;;;;;17.10;15.50;;;24.90;90.90;;;27.51;57.84;101336.72;5035207;28;20187;-58
2023/08/19 02:59:34;;;;;;;17.77;16.23;;;24.90;90.90;;;27.49;57.62;101339.69;5034592;28;20211;-62
2023/08/19 03:02:01;;;;;;;16.03;14.57;;;24.90;91.00;;;27.49;57.75;101338.88;5034784;28;20686;-57
2023/08/19 03:04:28;;;;;;;16.57;15.10;;;24.90;91.00;;;27.46;58.19;101340.22;5034849;28;20198;-55
2023/08/19 03:06:58;;;;;;;18.53;16.83;;;24.90;91.00;;;27.46;58.12;101339.41;5034842;28;20221;-54
2023/08/19 03:09:25;;;;;;;17.40;15.53;;;24.90;91.10;;;27.43;58.05;101338.06;5034298;28;20219;-56
2023/08/19 03:11:53;;;;;;;17.57;15.87;;;24.90;91.10;;;27.42;58.43;101335.63;5034760;28;20225;-58
2023/08/19 03:14:20;;;;;;;17.50;15.90;;;24.90;91.10;;;27.38;58.18;101332.69;5034398;28;20677;-59
2023/08/19 03:16:49;;;;;;;17.63;15.83;;;24.80;91.10;;;27.36;58.38;101334.00;5034639;28;20228;-56
2023/08/19 03:19:16;;;;;;;18.40;16.80;;;24.80;91.10;;;27.34;58.47;101331.56;5033836;28;20191;-59
2023/08/19 03:21:44;;;;;;;17.37;15.87;;;24.80;91.20;;;27.30;58.46;101329.66;5034499;28;20198;-56
2023/08/19 03:24:12;;;;;;;17.83;16.37;;;24.70;91.20;;;27.29;58.92;101333.47;5034595;28;20234;-58
2023/08/19 03:26:39;;;;;;;17.20;15.63;;;24.70;91.30;;;27.26;58.45;101328.59;5034333;28;20221;-55
2023/08/19 03:29:06;;;;;;;18.10;16.33;;;24.70;91.30;;;27.24;58.70;101331.53;5034232;28;20194;-57
2023/08/19 03:31:33;;;;;;;18.90;17.07;;;24.70;91.40;;;27.22;58.64;101336.41;5034829;28;20497;-58
2023/08/19 03:34:00;;;;;;;18.33;16.73;;;24.70;91.40;;;27.21;58.72;101334.00;5033789;28;20303;-58
2023/08/19 03:36:29;;;;;;;19.13;17.43;;;24.70;91.40;;;27.20;58.63;101335.06;5033287;28;20277;-58
2023/08/19 03:38:56;;;;;;;17.80;16.30;;;24.70;91.50;;;27.19;58.61;101334.28;5014093;28;20241;-56
2023/08/19 03:41:24;;;;;;;19.43;17.67;;;24.60;91.50;;;27.19;58.77;101338.88;5014204;28;20672;-56
2023/08/19 03:43:51;;;;;;;19.67;17.97;;;24.60;91.50;;;27.16;58.63;101334.81;5013980;28;20264;-57
2023/08/19 03:46:18;;;;;;;18.40;16.77;;;24.60;91.50;;;27.14;59.02;101336.97;5034097;28;20551;-56
2023/08/19 03:48:45;;;;;;;18.80;17.00;;;24.60;91.60;;;27.12;59.20;101338.31;5033081;28;20194;-54
2023/08/19 03:51:12;;;;;;;19.07;17.30;;;24.60;91.60;;;27.08;59.51;101335.31;5033875;28;20211;-56
2023/08/19 03:53:39;;;;;;;18.90;17.10;;;24.50;91.60;;;27.05;59.09;101327.78;5033414;28;20198;-54
2023/08/19 03:56:06;;;;;;;19.13;17.33;;;24.50;91.60;;;27.03;59.15;101331.81;5033642;28;20218;-59
2023/08/19 03:58:35;;;;;;;20.13;18.33;;;24.50;91.70;;;27.00;59.58;101335.06;5033373;28;20218;-58
2023/08/19 04:01:06;;;;;;;20.20;18.40;;;24.50;91.70;;;26.95;59.76;101332.34;5033880;28;20662;-57
2023/08/19 04:03:34;;;;;;;19.93;18.13;;;24.50;91.80;;;26.94;59.51;101336.94;5030860;28;20199;-57
2023/08/19 04:06:04;;;;;;;20.10;18.30;;;24.40;91.80;;;26.91;59.52;101333.97;5034136;28;20218;-54
2023/08/19 04:08:31;;;;;;;20.53;18.73;;;24.40;91.90;;;26.88;60.13;101321.81;5033069;28;20214;-57
2023/08/19 04:11:04;;;;;;;20.77;18.97;;;24.40;92.00;;;26.85;59.81;101323.16;5033801;28;20233;-58
2023/08/19 04:13:32;;;;;;;19.97;18.17;;;24.30;92.00;;;26.85;59.88;101323.16;5032675;28;20260;-58
2023/08/19 04:16:05;;;;;;;20.63;18.63;;;24.40;92.10;;;26.84;59.55;101328.81;5033773;28;20214;-55
2023/08/19 04:18:33;;;;;;;20.90;19.10;;;24.30;92.10;;;26.82;60.17;101323.69;5033022;28;20194;-54
2023/08/19 04:21:03;;;;;;;21.17;19.27;;;24.30;92.10;;;26.80;59.68;101325.84;5033093;28;20301;-58
2023/08/19 04:23:31;;;;;;;21.13;19.23;;;24.30;92.10;;;26.79;59.92;101329.59;5033258;28;20190;-58
2023/08/19 04:25:58;;;;;;;21.03;19.20;;;24.30;92.20;;;26.78;60.41;101325.31;5033155;28;20186;-55
2023/08/19 04:28:25;;;;;;;20.67;18.83;;;24.30;92.20;;;26.76;59.91;101330.16;5033477;28;20191;-57
2023/08/19 04:31:00;;;;;;;21.23;19.23;;;24.30;92.20;;;26.75;60.11;101328.53;5033502;28;20249;-58
2023/08/19 04:33:28;;;;;;;20.17;18.33;;;24.20;92.20;;;26.75;60.24;101319.59;5019869;28;20269;-55
2023/08/19 04:35:56;;;;;;;20.83;18.80;;;24.20;92.20;;;26.74;60.00;101324.16;5033053;28;20269;-58
2023/08/19 04:38:23;;;;;;;19.00;17.40;;;24.20;92.20;;;26.75;60.21;101325.81;5033302;28;20195;-58
2023/08/19 04:40:50;;;;;;;20.63;18.93;;;24.20;92.30;;;26.74;60.22;101326.84;5033306;28;20217;-57
2023/08/19 04:43:19;;;;;;;22.83;20.53;;;24.20;92.30;;;26.74;60.22;101326.06;5033384;28;20198;-55
2023/08/19 04:45:46;;;;;;;21.33;19.27;;;24.10;92.30;;;26.71;60.09;101327.41;5032718;28;20220;-59
2023/08/19 04:48:14;;;;;;;21.70;19.80;;;24.20;92.30;;;26.71;60.48;101332.81;5033645;28;20209;-58
2023/08/19 04:50:42;;;;;;;18.83;17.23;;;24.10;92.30;;;26.73;60.34;101336.06;5032372;28;20214;-54
2023/08/19 04:53:09;;;;;;;19.77;18.07;;;24.20;92.40;;;26.76;60.33;101332.03;5033082;28;20233;-55
2023/08/19 04:55:36;;;;;;;19.97;17.93;;;24.10;92.40;;;26.79;60.48;101339.63;5033410;28;20250;-57
2023/08/19 04:58:03;;;;;;;18.37;16.70;;;24.20;92.50;;;26.83;60.04;101333.41;5033406;28;20191;-56
2023/08/19 05:00:30;;;;;;;19.67;17.97;;;24.20;92.50;;;26.85;60.23;101333.97;5032470;28;20249;-57
2023/08/19 05:02:57;;;;;;;19.63;17.87;;;24.20;92.40;;;26.89;59.90;101330.72;5033181;28;20249;-55
2023/08/19 05:05:25;;;;;;;20.13;18.30;;;24.20;92.40;;;26.92;60.30;101338.28;5033303;28;20190;-55
2023/08/19 05:07:53;;;;;;;19.83;18.13;;;24.20;92.30;;;26.92;59.89;101338.28;5033516;28;20194;-57
2023/08/19 05:10:20;;;;;;;21.40;19.50;;;24.30;92.40;;;26.92;59.84;101338.28;5032511;28;20238;-57
2023/08/19 05:12:47;;;;;;;21.10;19.20;;;24.30;92.40;;;26.92;59.90;101343.69;5032835;28;20215;-55
2023/08/19 05:15:14;;;;;;;20.93;19.03;;;24.30;92.40;;;26.93;60.14;101346.13;5034892;28;20789;-59
2023/08/19 05:17:41;;;;;;;20.40;18.77;;;24.30;92.40;;;26.95;59.78;101343.16;5036672;28;20285;-58
2023/08/19 05:20:09;;;;;;;19.23;17.60;;;24.30;92.40;;;26.96;59.92;101345.56;5036035;28;20214;-58
2023/08/19 05:22:36;;;;;;;20.17;18.53;;;24.30;92.30;;;26.98;59.83;101342.63;5036691;28;20223;-54
2023/08/19 05:25:06;;;;;;;22.13;19.87;;;24.30;92.30;;;26.97;59.83;101338.28;5036699;28;20187;-58
2023/08/19 05:27:33;;;;;;;20.30;18.50;;;24.30;92.30;;;26.97;59.69;101346.41;5036693;28;20639;-61
2023/08/19 05:30:04;;;;;;;22.00;20.00;;;24.30;92.30;;;26.98;60.00;101350.75;5035982;28;20241;-59
2023/08/19 05:32:31;;;;;;;20.93;18.97;;;24.40;92.30;;;26.99;60.01;101349.63;5036358;28;20252;-57
2023/08/19 05:34:58;;;;;;;20.00;18.30;;;24.40;92.30;;;27.00;59.81;101356.69;5036447;28;20218;-57
2023/08/19 05:37:25;;;;;;;20.60;18.83;;;24.40;92.30;;;27.02;59.94;101354.53;5036065;28;20240;-58
2023/08/19 05:39:52;;;;;;;20.70;18.93;;;24.40;92.30;;;27.04;59.45;101353.16;5035831;28;20280;-57
2023/08/19 05:42:20;;;;;;;20.03;18.27;;;24.40;92.30;;;27.09;59.56;101361.28;5023763;28;20668;-54
2023/08/19 05:44:47;;;;;;;21.00;18.90;;;24.50;92.30;;;27.13;59.83;101361.56;5024020;28;20187;-55
2023/08/19 05:47:15;;;;;;;21.87;19.57;;;24.50;92.30;;;27.17;60.04;101368.06;5036017;28;20206;-55
2023/08/19 05:49:42;;;;;;;20.03;18.27;;;24.50;92.20;;;27.20;59.43;101362.09;5035760;28;20264;-57
2023/08/19 05:52:09;;;;;;;20.00;18.20;;;24.60;92.20;;;27.25;59.45;101359.41;5036088;28;20213;-54
2023/08/19 05:54:36;;;;;;;20.20;18.40;;;24.60;92.10;;;27.30;59.18;101356.69;5035546;28;20265;-58
2023/08/19 05:57:04;;;;;;;18.67;16.90;;;24.70;92.10;;;27.36;59.14;101361.03;5035944;28;20190;-56
2023/08/19 05:59:33;;;;;;;19.90;17.90;;;24.70;92.00;;;27.43;58.87;101364.31;5035419;28;20213;-58
2023/08/19 06:02:00;;;;;;;19.17;17.27;;;24.70;91.90;;;27.51;58.78;101369.16;5035935;28;20190;-58
2023/08/19 06:04:27;;;;;;;18.80;17.07;;;24.80;91.90;;;27.56;58.79;101371.88;5035563;28;20554;-56
2023/08/19 06:06:54;;;;;;;19.80;17.83;;;24.90;91.70;;;27.61;58.32;101371.88;5035945;28;20194;-55
2023/08/19 06:09:21;;;;;;;19.30;17.60;;;24.90;91.60;;;27.66;57.89;101371.88;5035223;28;20191;-58
2023/08/19 06:11:50;;;;;;;18.63;16.93;;;25.00;91.50;;;27.68;57.86;101372.41;5035521;28;20191;-59
2023/08/19 06:14:17;;;;;;;20.17;18.37;;;25.00;91.30;;;27.69;57.87;101378.63;5035769;28;20200;-55
2023/08/19 06:16:46;;;;;;;18.80;17.10;;;25.00;91.30;;;27.73;57.70;101367.00;5035693;28;20218;-55
2023/08/19 06:19:15;;;;;;;21.23;19.33;;;25.10;91.20;;;27.74;57.51;101371.31;5035423;28;20248;-57
2023/08/19 06:21:42;;;;;;;21.07;19.07;;;25.10;91.10;;;27.72;57.69;101364.56;5035732;28;20670;-57
2023/08/19 06:24:09;;;;;;;20.77;18.77;;;25.10;91.10;;;27.71;57.83;101369.16;5035199;28;20194;-56
2023/08/19 06:26:36;;;;;;;21.03;19.13;;;25.10;91.10;;;27.70;57.70;101367.53;5033226;28;20213;-56
2023/08/19 06:29:03;;;;;;;22.20;20.30;;;25.10;91.00;;;27.68;57.78;101363.47;5035121;28;20245;-59
2023/08/19 06:31:32;;;;;;;20.90;18.67;;;25.10;91.10;;;27.72;57.96;101365.38;5035195;28;20218;-56
2023/08/19 06:34:01;;;;;;;18.63;16.93;;;25.10;91.00;;;27.76;57.63;101371.88;5035528;28;20221;-57
2023/08/19 06:36:29;;;;;;;21.07;19.27;;;25.20;91.00;;;27.78;57.49;101374.28;5034877;28;20237;-59
2023/08/19 06:39:06;;;;;;;21.13;19.13;;;25.20;90.90;;;27.75;57.73;101370.25;5034969;28;20286;-55
2023/08/19 06:41:37;;;;;;;19.93;18.10;;;25.20;90.90;;;27.79;57.72;101370.53;5035187;28;20214;-55
2023/08/19 06:44:07;;;;;;;19.53;17.83;;;25.20;90.90;;;27.84;57.49;101374.00;5034863;28;20190;-57
2023/08/19 06:46:35;;;;;;;20.77;18.97;;;25.30;90.90;;;27.90;57.28;101367.50;5034403;28;20539;-58
2023/08/19 06:49:05;;;;;;;18.10;16.50;;;25.30;90.80;;;27.99;57.14;101370.47;5034381;28;20271;-58
2023/08/19 06:51:33;;;;;;;20.33;18.47;;;25.40;90.80;;;28.05;56.97;101375.63;5034450;28;20199;-57
2023/08/19 06:54:01;;;;;;;19.33;17.43;;;25.40;90.70;;;28.14;56.99;101379.41;5034915;28;20206;-56
2023/08/19 06:56:33;;;;;;;16.70;15.30;;;25.40;90.70;;;28.24;56.92;101380.47;5034858;28;20220;-57
2023/08/19 06:59:11;;;;;;;21.17;19.27;;;25.50;90.60;;;28.32;56.41;101385.28;5034414;28;20317;-58
2023/08/19 07:01:44;;;;;;;18.43;16.83;;;25.60;90.60;;;28.36;56.42;101380.97;5034498;28;20221;-58
2023/08/19 07:04:15;;;;;;;19.23;17.63;;;25.60;90.40;;;28.38;55.84;101385.00;5034887;28;20195;-57
2023/08/19 07:06:43;;;;;;;18.30;16.70;;;25.60;90.30;;;28.41;55.80;101379.00;5034895;28;20187;-55
2023/08/19 07:09:11;;;;;;;18.80;17.20;;;25.70;90.20;;;28.43;56.16;101376.84;5033679;28;20619;-59
2023/08/19 07:11:39;;;;;;;19.83;17.93;;;25.80;90.20;;;28.45;55.93;101369.28;5034006;28;20209;-61
2023/08/19 07:14:08;;;;;;;18.57;16.97;;;25.80;90.10;;;28.51;55.58;101375.47;5034138;28;20666;-57
2023/08/19 07:16:36;;;;;;;18.90;17.30;;;25.80;90.00;;;28.60;55.40;101368.41;5033981;28;20242;-63
2023/08/19 07:19:11;;;;;;;17.77;16.17;;;25.90;89.90;;;28.67;55.52;101360.75;5033840;28;20209;-58
2023/08/19 07:21:42;;;;;;;16.00;14.70;;;26.00;89.90;;;28.81;54.83;101350.94;5032678;28;20301;-55
2023/08/19 07:24:11;;;;;;;16.13;14.73;;;26.10;89.70;;;28.95;54.46;101354.66;5034225;28;20534;-58
2023/08/19 07:26:40;;;;;;;17.53;15.97;;;26.20;89.30;;;29.06;54.60;101355.38;5033907;28;20186;-57
2023/08/19 07:29:08;;;;;;;15.90;14.60;;;26.30;88.70;;;29.19;53.69;101355.56;5033459;28;20190;-57
2023/08/19 07:31:36;;;;;;;15.67;14.27;;;26.40;88.30;;;29.34;53.62;101363.59;5033542;28;20190;-58
2023/08/19 07:34:03;;;;;;;15.77;14.37;;;26.50;87.90;;;29.48;53.12;101370.00;5033525;28;20270;-53
2023/08/19 07:36:30;;;;;;;15.67;14.27;;;26.60;87.60;;;29.65;53.18;101371.47;5033593;28;20214;-61
2023/08/19 07:39:00;;;;;;;15.60;14.33;;;26.70;86.90;;;30.07;51.96;101368.91;5033534;28;20194;-56
2023/08/19 07:41:27;;;;;;;16.30;15.00;;;26.90;87.00;;;30.41;51.57;101368.78;5033638;28;20217;-56
2023/08/19 07:43:54;;;;;;;17.07;15.53;;;27.10;86.00;;;30.59;49.70;101359.88;5032582;28;20661;-56
2023/08/19 07:46:21;;;;;;;16.20;14.80;;;27.30;84.40;;;30.68;50.35;101361.66;5033631;28;20199;-56
2023/08/19 07:48:48;;;;;;;15.23;13.93;;;27.50;84.00;;;31.13;48.89;101356.66;5032839;28;20191;-57
2023/08/19 07:51:16;;;;;;;14.13;12.83;;;27.70;83.60;;;31.39;47.94;101366.03;5033561;28;20236;-58
2023/08/19 07:53:43;;;;;;;16.50;14.93;;;27.90;82.60;;;31.57;47.60;101362.47;5033585;28;20628;-57
2023/08/19 07:56:12;;;;;;;15.20;13.73;;;28.20;81.60;;;31.99;47.02;101364.19;5033222;28;20221;-56
2023/08/19 07:58:40;;;;;;;14.87;13.67;;;28.40;81.10;;;32.58;46.20;101366.78;5032637;28;20194;-57
2023/08/19 08:01:10;;;;;;;14.03;12.93;;;28.70;80.60;;;33.45;44.69;101358.19;5033163;28;20258;-57
2023/08/19 08:03:38;;;;;;;14.55;13.45;;;29.10;79.50;;;34.24;42.37;101367.28;5033397;28;20630;-57
2023/08/19 08:06:06;;;;;;;16.00;14.40;;;29.60;76.90;;;34.91;40.48;101362.25;5033651;28;20186;-57
2023/08/19 08:08:33;;;;;;;13.88;12.73;;;30.10;74.70;;;35.30;39.51;101355.81;5032875;28;20214;-58
2023/08/19 08:11:00;;;;;;;12.77;11.75;;;30.70;73.00;;;35.87;39.14;101359.84;5032822;28;20628;-55
2023/08/19 08:13:29;;;;;;;14.20;12.90;;;31.10;71.70;;;36.67;38.03;101367.03;5033274;28;20659;-57
2023/08/19 08:15:56;;;;;;;13.30;12.20;;;31.60;70.00;;;37.32;36.15;101365.50;5033147;28;20334;-58
2023/08/19 08:18:24;;;;;;;14.15;12.77;;;32.10;67.60;;;37.65;34.84;101373.75;5032764;28;20195;-58
2023/08/19 08:20:51;;;;;;;13.18;12.07;;;32.50;65.50;;;37.74;35.18;101369.75;5032945;28;20757;-58
2023/08/19 08:23:18;;;;;;;13.57;12.35;;;32.90;64.40;;;37.84;35.02;101369.34;5032569;28;20321;-58
2023/08/19 08:25:45;;;;;;;12.93;11.93;;;33.20;63.30;;;37.72;34.80;101361.03;5031643;28;20195;-58
2023/08/19 08:28:12;;;;;;;12.63;11.63;;;33.30;62.20;;;37.64;34.92;101366.63;5032899;28;20198;-58
2023/08/19 08:30:41;;;;;;;13.27;12.10;;;33.40;62.20;;;37.94;35.01;101365.31;5032209;28;20702;-57
2023/08/19 08:33:08;;;;;;;11.75;10.85;;;33.50;62.20;;;38.44;34.25;101368.50;5029371;28;20191;-58
2023/08/19 08:35:35;;;;;;;11.80;10.90;;;33.70;61.60;;;39.01;33.58;101354.47;5013346;28;20672;-56
2023/08/19 08:38:03;;;;;;;12.57;11.48;;;34.00;61.00;;;39.65;31.81;101357.06;5026395;28;20201;-59
2023/08/19 08:40:31;;;;;;;12.35;11.25;;;34.40;59.50;;;39.97;31.40;101352.31;5032422;28;20222;-57
2023/08/19 08:43:02;;;;;;;11.30;10.40;;;34.60;58.30;;;40.33;30.63;101354.75;5032990;28;20232;-58
2023/08/19 08:45:31;;;;;;;11.50;10.63;;;35.00;57.40;;;40.56;30.11;101354.09;5031127;28;20203;-56
2023/08/19 08:48:02;;;;;;;12.20;11.30;;;35.20;56.30;;;40.69;30.01;101356.38;5032678;28;20197;-54
2023/08/19 08:50:29;;;;;;;11.65;10.65;;;35.40;55.20;;;40.90;29.67;101367.88;5035703;28;20225;-58
2023/08/19 08:52:57;;;;;;;10.85;10.05;;;35.70;55.10;;;41.31;29.32;101365.53;5036811;28;20205;-57
2023/08/19 08:55:25;;;;;;;11.32;10.43;;;35.90;53.90;;;41.34;28.41;101354.56;5036433;28;20263;-56
2023/08/19 08:57:52;;;;;;;11.40;10.48;;;36.00;52.80;;;41.05;28.54;101361.47;5036280;28;20256;-57
2023/08/19 09:00:19;;;;;;;10.52;9.73;;;36.10;52.50;;;40.86;29.29;101366.22;5035518;28;20222;-57
2023/08/19 09:02:48;;;;;;;11.70;10.77;;;36.10;52.70;;;40.71;29.48;101358.75;5036131;28;20206;-58
2023/08/19 09:05:21;;;;;;;11.85;9.93;;;36.00;52.60;;;40.85;29.93;101364.56;5036348;28;20198;-59
2023/08/19 09:07:52;;;;;;;11.95;11.02;;;36.10;52.60;;;40.80;29.52;101364.84;5036650;28;20177;-58
2023/08/19 09:10:24;;;;;;;11.82;10.95;;;36.10;51.90;;;40.37;30.38;101365.88;5035988;28;20206;-59
2023/08/19 09:12:58;;;;;;;12.05;10.95;;;36.10;52.40;;;39.77;30.64;101375.47;5036736;28;20199;-59
2023/08/19 09:15:29;;;;;;;12.35;11.30;;;35.80;52.40;;;39.23;31.62;101366.91;5036650;28;20190;-58
2023/08/19 09:17:57;;;;;;;12.93;11.73;;;35.60;52.70;;;38.69;32.32;101379.47;5035833;28;20198;-58
2023/08/19 09:20:27;;;;;;;12.07;11.00;;;35.30;53.50;;;38.05;33.68;101374.72;5035041;28;20224;-57
2023/08/19 09:23:04;;;;;;;12.60;11.32;;;35.00;54.60;;;37.31;34.79;101372.94;5036415;28;20421;-55
2023/08/19 09:25:36;;;;;;;12.60;11.57;;;34.60;55.50;;;36.73;36.24;101362.13;5035977;28;20194;-57
2023/08/19 09:28:03;;;;;;;11.88;10.88;;;34.20;56.50;;;36.12;36.59;101366.38;5035888;28;20229;-58
2023/08/19 09:30:32;;;;;;;11.50;10.50;;;33.70;57.80;;;35.67;38.12;101360.56;5035730;28;20247;-60
2023/08/19 09:33:01;;;;;;;12.63;11.52;;;33.30;58.80;;;35.30;38.55;101355.81;5033664;28;20226;-57
2023/08/19 09:35:36;;;;;;;12.45;11.20;;;32.90;59.90;;;35.03;39.36;101361.63;5024494;28;20218;-60
2023/08/19 09:38:25;;;;;;;11.77;10.77;;;32.60;61.10;;;34.84;39.35;101359.19;5035691;28;20580;-59
2023/08/19 09:41:01;;;;;;;12.77;11.77;;;32.30;62.40;;;34.69;40.90;101357.75;5035406;28;20210;-58
2023/08/19 09:43:28;;;;;;;12.23;11.23;;;32.10;63.70;;;34.60;40.31;101359.66;5034434;28;20202;-58
2023/08/19 09:45:57;;;;;;;12.27;11.32;;;31.90;64.00;;;34.58;40.27;101353.72;5035188;28;20597;-58
2023/08/19 09:48:25;;;;;;;10.98;9.90;;;31.90;64.40;;;34.55;40.86;101361.75;5035519;28;20182;-54
2023/08/19 09:50:53;;;;;;;11.57;10.60;;;31.70;64.60;;;34.42;40.77;101357.97;5035549;28;20297;-60
2023/08/19 09:53:22;;;;;;;11.77;10.85;;;31.60;65.00;;;34.37;40.92;101360.91;5036076;28;20269;-53
2023/08/19 09:55:50;;;;;;;11.98;10.88;;;31.60;65.40;;;34.43;40.92;101358.78;5035059;28;20226;-56
2023/08/19 09:58:17;;;;;;;11.60;10.52;;;31.60;66.40;;;34.47;40.44;101360.56;5035104;28;20187;-58
2023/08/19 10:00:46;;;;;;;11.75;10.75;;;31.50;65.90;;;34.44;40.65;101361.22;5033284;28;20259;-54
2023/08/19 10:03:14;;;;;;;12.32;9.73;;;31.50;65.90;;;34.42;40.43;101363.44;5035727;28;20286;-57
2023/08/19 10:05:45;;;;;;;11.48;10.60;;;31.50;66.00;;;34.42;40.99;101352.50;5035543;28;20233;-57